Time;durP1;ratioP1;P1;durP2;ratioP2;P2;SDS_P1;SDS_P2;PMS_P1;PMS_P2;Temp;Humidity;BMP_temperature;BMP_pressure;BME280_temperature;BME280_humidity;BME280_pressure;Samples;Min_cycle;Max_cycle;Signal;HPM_P1;HPM_P2
2022/12/28 00:01:06;;;;;;;20.65;10.13;;;;;;;12.24;64.92;101704.16;4955399;28;20031;-81
2022/12/28 00:03:32;;;;;;;19.98;9.95;;;;;;;12.25;64.95;101705.91;4956261;28;20055;-82
2022/12/28 00:05:57;;;;;;;14.75;8.45;;;;;;;12.28;64.63;101707.50;4956173;28;20145;-81
2022/12/28 00:08:23;;;;;;;11.15;8.52;;;;;;;12.29;64.40;101709.25;4956024;29;20131;-81
2022/12/28 00:10:48;;;;;;;11.68;8.90;;;;;;;12.20;64.57;101716.13;4958035;29;20475;-82
2022/12/28 00:13:13;;;;;;;17.63;8.43;;;;;;;12.25;64.60;101719.38;4956873;29;20035;-80
2022/12/28 00:15:39;;;;;;;17.95;8.63;;;;;;;12.20;64.66;101720.69;4958159;29;20035;-81
2022/12/28 00:18:04;;;;;;;15.38;10.65;;;;;;;12.31;63.72;101754.03;4956614;29;20099;-81
2022/12/28 00:20:30;;;;;;;12.20;9.10;;;;;;;12.26;63.25;101747.22;4956813;29;20475;-82
2022/12/28 00:22:55;;;;;;;14.65;10.70;;;;;;;12.25;63.19;101756.28;4955722;28;20086;-80
2022/12/28 00:25:21;;;;;;;16.42;10.75;;;;;;;12.24;62.82;101749.16;4955663;29;20031;-81
2022/12/28 00:27:46;;;;;;;16.20;10.95;;;;;;;12.07;63.53;101758.44;4961486;28;20019;-82
2022/12/28 00:30:12;;;;;;;18.63;10.05;;;;;;;12.00;63.72;101758.00;4962346;29;20039;-80
2022/12/28 00:32:37;;;;;;;23.55;10.82;;;;;;;11.90;64.01;101767.69;4955566;29;20047;-81
2022/12/28 00:35:03;;;;;;;19.55;11.00;;;;;;;11.82;63.69;101779.97;4957386;28;20058;-81
2022/12/28 00:37:28;;;;;;;20.63;12.07;;;;;;;11.72;64.61;101774.34;4954727;28;20483;-81
2022/12/28 00:39:54;;;;;;;14.88;10.30;;;;;;;11.49;64.25;101766.91;4954320;29;20023;-83
2022/12/28 00:42:19;;;;;;;19.02;10.43;;;;;;;11.27;64.40;101766.59;4955235;29;20031;-81
2022/12/28 00:44:45;;;;;;;18.15;9.93;;;;;;;11.03;65.15;101779.00;4957267;29;20053;-81
2022/12/28 00:47:11;;;;;;;15.05;9.88;;;;;;;10.90;65.64;101795.94;4971944;28;20058;-80
2022/12/28 00:49:36;;;;;;;15.40;10.10;;;;;;;10.65;65.79;101794.88;4972592;28;20453;-81
2022/12/28 00:52:02;;;;;;;16.27;10.63;;;;;;;10.56;66.20;101801.72;4974085;28;20156;-82
2022/12/28 00:54:28;;;;;;;19.20;10.57;;;;;;;10.44;66.62;101794.41;4973363;28;20110;-81
2022/12/28 00:56:53;;;;;;;19.70;10.27;;;;;;;10.42;66.62;101804.41;4971638;28;20031;-82
2022/12/28 00:59:18;;;;;;;18.30;10.30;;;;;;;10.33;67.14;101776.28;4971436;28;20050;-82
2022/12/28 01:01:44;;;;;;;17.77;10.43;;;;;;;10.29;66.85;101776.53;4971883;28;20035;-82
2022/12/28 01:04:09;;;;;;;16.02;10.30;;;;;;;10.17;67.33;101788.06;4971233;28;20027;-81
2022/12/28 01:06:35;;;;;;;20.42;11.15;;;;;;;10.10;67.32;101797.41;4972040;28;20470;-80
2022/12/28 01:09:00;;;;;;;18.20;10.27;;;;;;;9.91;67.57;101786.06;4961414;28;20100;-81
2022/12/28 01:11:28;;;;;;;19.55;11.23;;;;;;;9.91;68.30;101811.09;4975178;28;20027;-83
2022/12/28 01:13:57;;;;;;;17.38;10.18;;;;;;;9.83;68.55;101813.38;4974518;28;20027;-82
2022/12/28 01:16:25;;;;;;;17.05;11.00;;;;;;;9.65;68.54;101804.59;4974752;28;20494;-82
2022/12/28 01:18:56;;;;;;;20.42;12.45;;;;;;;9.58;69.04;101816.63;4974923;28;20023;-82
2022/12/28 01:21:24;;;;;;;18.25;12.18;;;;;;;9.48;69.41;101793.13;4974649;28;20073;-81
2022/12/28 01:23:54;;;;;;;21.42;11.10;;;;;;;9.54;70.15;101836.56;4975075;28;20564;-82
2022/12/28 01:26:19;;;;;;;20.25;11.10;;;;;;;9.52;69.68;101849.22;4974759;28;20035;-82
2022/12/28 01:28:45;;;;;;;21.58;11.55;;;;;;;9.41;70.26;101846.31;4974687;28;20027;-82
2022/12/28 01:31:13;;;;;;;18.55;12.00;;;;;;;9.47;70.59;101888.91;4977013;28;20031;-81
2022/12/28 01:33:39;;;;;;;16.00;10.48;;;;;;;9.41;70.72;101886.56;4979453;28;20078;-81
2022/12/28 01:36:09;;;;;;;16.40;11.10;;;;;;;9.50;70.96;101882.50;4979047;28;20522;-82
2022/12/28 01:38:35;;;;;;;15.02;10.70;;;;;;;9.54;70.83;101874.16;4975077;28;20574;-81
2022/12/28 01:41:01;;;;;;;16.67;10.93;;;;;;;9.59;70.64;101866.72;4974875;28;20037;-83
2022/12/28 01:43:52;;;;;;;20.05;10.57;;;;;;;9.62;69.37;101861.19;4975737;28;20059;-81
2022/12/28 01:46:23;;;;;;;13.40;9.75;;;;;;;9.64;69.08;101870.00;4975888;28;20051;-82
2022/12/28 01:49:00;;;;;;;19.83;10.13;;;;;;;9.71;68.53;101874.06;4975022;28;20026;-81
2022/12/28 01:51:29;;;;;;;20.75;9.00;;;;;;;9.68;67.27;101886.81;4974652;28;20121;-81
2022/12/28 01:53:58;;;;;;;15.65;8.57;;;;;;;9.53;67.07;101880.50;4975798;28;20054;-81
2022/12/28 01:56:24;;;;;;;13.30;8.43;;;;;;;9.43;66.47;101890.03;4974287;28;20031;-81
2022/12/28 01:58:49;;;;;;;12.75;8.43;;;;;;;9.24;66.50;101889.31;4975099;28;20382;-81
2022/12/28 02:01:16;;;;;;;14.45;8.65;;;;;;;9.31;66.66;101909.53;4974546;28;20430;-82
2022/12/28 02:03:42;;;;;;;14.75;10.13;;;;;;;9.41;66.30;101894.63;4974061;28;20023;-81
2022/12/28 02:06:10;;;;;;;22.27;8.80;;;;;;;9.36;66.37;101891.31;4974514;28;20114;-81
2022/12/28 02:08:40;;;;;;;12.30;8.00;;;;;;;9.39;66.35;101893.00;4974036;28;20027;-81
2022/12/28 02:11:07;;;;;;;12.13;8.50;;;;;;;9.42;65.76;101890.97;4974213;28;20045;-81
2022/12/28 02:13:33;;;;;;;13.95;9.38;;;;;;;9.53;65.89;101890.38;4974677;28;20037;-81
2022/12/28 02:15:58;;;;;;;17.45;9.27;;;;;;;9.54;65.90;101895.66;4974669;28;20043;-81
2022/12/28 02:18:25;;;;;;;11.90;7.30;;;;;;;9.53;65.16;101899.31;4973952;28;20468;-82
2022/12/28 02:21:10;;;;;;;10.50;7.22;;;;;;;9.39;64.50;101899.19;4974426;28;20031;-82
2022/12/28 02:24:09;;;;;;;13.32;6.32;;;;;;;9.49;63.70;101892.38;4974056;28;20031;-81
2022/12/28 02:26:54;;;;;;;17.35;7.25;;;;;;;9.48;63.01;101905.91;4969732;28;20037;-81
2022/12/28 02:29:28;;;;;;;8.38;5.72;;;;;;;9.39;62.01;101884.94;4973956;28;20095;-82
2022/12/28 02:32:14;;;;;;;10.90;6.03;;;;;;;9.40;61.03;101900.94;4972513;28;20061;-81
2022/12/28 02:35:11;;;;;;;9.73;5.55;;;;;;;9.46;60.44;101887.16;4974063;28;20046;-82
2022/12/28 02:37:46;;;;;;;14.27;5.82;;;;;;;9.26;59.98;101890.13;4977656;28;20110;-82
2022/12/28 02:40:26;;;;;;;8.63;5.07;;;;;;;9.18;60.27;101881.63;4976858;28;20037;-82
2022/12/28 02:42:53;;;;;;;13.10;5.22;;;;;;;9.24;60.13;101902.75;4956525;28;20498;-82
2022/12/28 02:51:33;;;;;;;11.82;5.95;;;;;;;9.07;60.36;101916.25;4974713;28;19937;-81
2022/12/28 02:54:08;;;;;;;10.25;5.72;;;;;;;9.10;60.52;101913.38;4994145;28;20035;-82
2022/12/28 02:56:59;;;;;;;13.85;6.95;;;;;;;9.01;60.47;101916.56;4997940;28;20042;-82
2022/12/28 02:59:47;;;;;;;14.52;6.88;;;;;;;9.02;60.50;101929.91;4989237;28;20042;-81
2022/12/28 03:02:19;;;;;;;14.65;6.78;;;;;;;8.90;59.54;101935.09;4985420;28;20046;-81
2022/12/28 03:05:09;;;;;;;9.80;5.20;;;;;;;8.72;59.89;101928.84;4980391;28;20031;-82
2022/12/28 03:11:00;;;;;;;12.20;4.53;;;;;;;8.69;58.58;101920.97;4972794;28;20038;-81
2022/12/28 03:13:42;;;;;;;11.07;3.72;;;;;;;8.59;57.85;101909.03;4973243;28;20023;-81
2022/12/28 03:16:23;;;;;;;9.70;4.45;;;;;;;8.62;58.09;101928.47;4973430;28;20037;-83
2022/12/28 03:32:58;;;;;;;;;;;;;;;8.10;57.70;101972.28;4973152;28;20199;-81
2022/12/28 03:35:37;;;;;;;9.43;4.05;;;;;;;7.95;58.86;101973.03;4972937;28;19995;-82
2022/12/28 03:38:03;;;;;;;11.00;4.80;;;;;;;7.82;59.69;101974.56;4974349;28;20040;-80
2022/12/28 03:40:48;;;;;;;8.30;3.67;;;;;;;7.80;59.92;101973.78;4981255;28;20057;-81
2022/12/28 03:46:28;;;;;;;8.63;3.95;;;;;;;7.75;60.36;101978.47;4976548;28;20128;-82
2022/12/28 03:48:56;;;;;;;7.45;3.80;;;;;;;7.67;60.66;101971.69;4972545;28;20084;-81
2022/12/28 03:51:24;;;;;;;9.77;3.53;;;;;;;7.66;60.85;101980.66;4972549;28;20097;-81
2022/12/28 03:53:49;;;;;;;10.95;3.90;;;;;;;7.68;60.77;101962.72;4972251;28;20509;-82
2022/12/28 03:56:21;;;;;;;11.43;3.83;;;;;;;7.73;60.53;101985.72;4972522;28;20109;-82
2022/12/28 03:58:47;;;;;;;8.80;3.97;;;;;;;7.66;60.56;101990.50;4972493;28;20371;-82
2022/12/28 04:01:13;;;;;;;6.97;3.88;;;;;;;7.64;60.41;101993.25;4972473;28;20278;-81
2022/12/28 04:03:40;;;;;;;5.70;3.50;;;;;;;7.62;60.17;101995.13;4972201;28;20170;-82
2022/12/28 04:06:06;;;;;;;6.85;3.25;;;;;;;7.62;59.73;102000.50;4972558;28;20071;-82
2022/12/28 04:08:33;;;;;;;9.50;3.97;;;;;;;7.61;59.73;101997.91;4972321;28;20089;-81
2022/12/28 04:10:59;;;;;;;7.53;3.30;;;;;;;7.63;59.52;101990.66;4972617;28;20031;-81
2022/12/28 04:13:28;;;;;;;9.80;3.42;;;;;;;7.63;59.25;102007.59;4972736;28;20031;-81
2022/12/28 04:15:59;;;;;;;6.15;3.00;;;;;;;7.54;58.73;101997.31;4972810;28;20039;-82
2022/12/28 04:18:24;;;;;;;12.07;3.13;;;;;;;7.52;57.91;101999.19;4972568;28;20027;-81
2022/12/28 04:20:50;;;;;;;10.15;3.35;;;;;;;7.51;58.06;102013.53;4972173;28;20031;-81
2022/12/28 04:23:19;;;;;;;12.35;3.33;;;;;;;7.48;57.87;102008.31;4972303;28;20030;-81
2022/12/28 04:26:00;;;;;;;19.15;6.60;;;;;;;7.54;57.39;102012.50;4972025;28;20045;-81
2022/12/28 04:28:26;;;;;;;7.23;3.67;;;;;;;7.44;57.13;102001.34;4972481;28;20062;-81
2022/12/28 04:30:52;;;;;;;23.27;4.85;;;;;;;7.52;57.56;102007.22;4971397;28;20058;-82
2022/12/28 04:33:17;;;;;;;6.47;3.13;;;;;;;7.41;57.19;102001.50;4971919;28;20027;-82
2022/12/28 04:35:43;;;;;;;25.90;5.18;;;;;;;7.60;57.53;102022.94;4971886;28;20110;-82
2022/12/28 04:38:08;;;;;;;11.35;3.95;;;;;;;7.69;57.73;102022.50;4970887;28;20042;-82
2022/12/28 04:40:34;;;;;;;8.05;3.13;;;;;;;7.83;57.19;102025.38;4971909;28;20042;-82
2022/12/28 04:42:59;;;;;;;12.25;3.72;;;;;;;7.91;57.41;102038.41;4973903;28;20134;-81
2022/12/28 04:45:24;;;;;;;14.25;3.75;;;;;;;8.03;56.75;102043.19;4980212;28;20031;-81
2022/12/28 04:47:50;;;;;;;14.30;4.30;;;;;;;8.14;56.37;102047.06;4962544;28;20031;-81
2022/12/28 04:50:15;;;;;;;9.98;4.32;;;;;;;8.15;56.76;102058.66;4977204;28;20033;-81
2022/12/28 04:52:41;;;;;;;12.55;3.78;;;;;;;8.24;56.67;102068.94;4975454;28;20398;-81
2022/12/28 04:55:07;;;;;;;11.38;3.70;;;;;;;8.25;56.41;102072.50;4978285;28;20034;-81
2022/12/28 04:57:32;;;;;;;8.18;3.20;;;;;;;8.18;56.93;102074.59;4976357;28;20651;-81
2022/12/28 04:59:58;;;;;;;11.45;3.95;;;;;;;8.33;56.45;102064.97;4975350;28;20768;-81
2022/12/28 05:02:23;;;;;;;6.25;3.45;;;;;;;8.33;56.41;102060.47;4976263;28;20171;-82
2022/12/28 05:04:49;;;;;;;7.75;3.60;;;;;;;8.41;55.96;102060.97;4975571;28;20461;-81
2022/12/28 05:07:14;;;;;;;10.35;3.65;;;;;;;8.55;55.49;102074.56;4975346;28;20065;-81
2022/12/28 05:09:39;;;;;;;8.98;3.72;;;;;;;8.53;55.95;102078.28;4958291;28;20034;-81
2022/12/28 05:12:05;;;;;;;9.68;3.92;;;;;;;8.55;55.67;102077.25;4975348;28;20038;-82
2022/12/28 05:14:30;;;;;;;12.98;3.90;;;;;;;8.64;55.29;102084.84;4974906;28;20037;-83
2022/12/28 05:16:56;;;;;;;15.07;4.60;;;;;;;8.60;54.90;102077.88;4975077;28;20038;-82
2022/12/28 05:19:21;;;;;;;14.40;3.97;;;;;;;8.80;54.99;102084.06;4974944;28;20048;-81
2022/12/28 05:21:48;;;;;;;15.10;4.30;;;;;;;8.74;54.61;102079.88;4976069;28;20033;-81
2022/12/28 05:24:13;;;;;;;11.15;4.20;;;;;;;8.75;54.55;102071.75;4975211;28;20045;-83
2022/12/28 05:26:39;;;;;;;7.65;3.75;;;;;;;8.78;54.50;102070.72;4974607;28;20035;-81
2022/12/28 05:29:04;;;;;;;19.95;4.75;;;;;;;8.84;54.04;102064.19;4974721;28;20572;-82
2022/12/28 05:31:29;;;;;;;7.68;3.83;;;;;;;8.95;53.49;102075.22;4974549;28;20035;-82
2022/12/28 05:33:55;;;;;;;12.25;3.70;;;;;;;8.99;53.31;102085.69;4974041;28;20053;-82
2022/12/28 05:36:25;;;;;;;14.85;4.10;;;;;;;9.08;53.27;102087.06;4974459;28;20066;-82
2022/12/28 05:38:52;;;;;;;42.97;17.40;;;;;;;9.09;53.50;102089.66;4973979;28;20497;-81
2022/12/28 05:41:28;;;;;;;15.85;5.38;;;;;;;9.13;53.38;102098.44;4974452;28;20451;-82
2022/12/28 05:43:56;;;;;;;30.08;6.32;;;;;;;9.20;53.04;102099.84;4974172;28;20100;-82
2022/12/28 05:46:28;;;;;;;24.70;6.05;;;;;;;9.24;53.07;102104.09;4965617;28;20055;-82
2022/12/28 05:48:55;;;;;;;18.15;4.93;;;;;;;9.21;52.98;102107.81;4976878;28;20030;-81
2022/12/28 05:51:23;;;;;;;16.63;3.53;;;;;;;9.14;52.35;102113.59;4977074;28;20117;-80
2022/12/28 05:53:49;;;;;;;20.17;4.45;;;;;;;9.03;52.16;102107.88;4974415;28;20057;-82
2022/12/28 05:56:19;;;;;;;7.00;3.60;;;;;;;9.11;52.32;102105.69;4973747;28;20027;-81
2022/12/28 05:58:47;;;;;;;6.35;2.85;;;;;;;9.11;51.52;102106.53;4974098;28;20109;-83
2022/12/28 06:01:18;;;;;;;15.38;3.95;;;;;;;9.14;51.17;102110.91;4973895;28;20052;-82
2022/12/28 06:03:44;;;;;;;18.88;4.10;;;;;;;9.14;51.01;102127.00;4973973;28;20069;-82
2022/12/28 06:06:15;;;;;;;11.63;4.10;;;;;;;9.17;51.07;102126.84;4973669;28;20027;-82
2022/12/28 06:08:42;;;;;;;17.20;4.68;;;;;;;9.05;50.96;102124.81;4973490;28;20035;-82
2022/12/28 06:11:10;;;;;;;18.70;5.03;;;;;;;9.04;50.95;102125.75;4973644;28;20261;-81
2022/12/28 06:13:36;;;;;;;9.95;4.30;;;;;;;8.95;51.02;102121.72;4955889;28;20062;-81
2022/12/28 06:16:06;;;;;;;18.30;6.35;;;;;;;8.92;51.45;102123.69;4973397;28;20061;-82
2022/12/28 06:18:32;;;;;;;8.63;4.53;;;;;;;8.83;51.56;102119.66;4975262;28;20035;-82
2022/12/28 06:21:21;;;;;;;10.98;3.38;;;;;;;8.76;51.75;102118.22;4977772;28;20023;-83
2022/12/28 06:23:48;;;;;;;16.35;4.13;;;;;;;8.74;52.18;102128.16;4977020;28;20041;-81
2022/12/28 06:26:20;;;;;;;15.23;4.30;;;;;;;8.66;51.94;102127.66;4977163;28;20886;-82
2022/12/28 06:28:46;;;;;;;13.85;5.43;;;;;;;8.62;52.36;102129.63;4975499;28;20091;-80
2022/12/28 06:31:21;;;;;;;13.27;4.50;;;;;;;8.57;52.04;102131.66;4977926;28;20034;-83
2022/12/28 06:33:47;;;;;;;9.95;3.17;;;;;;;8.55;52.78;102133.56;4977745;28;20027;-81
2022/12/28 06:36:16;;;;;;;9.88;3.47;;;;;;;8.57;52.71;102138.84;4976143;28;20058;-82
2022/12/28 06:38:41;;;;;;;52.10;6.63;;;;;;;8.52;52.06;102131.03;4977655;28;20173;-82
2022/12/28 06:41:09;;;;;;;10.55;4.35;;;;;;;8.44;52.05;102135.88;4976987;28;20070;-83
2022/12/28 06:43:37;;;;;;;12.80;3.50;;;;;;;8.55;52.16;102143.41;4978547;28;20492;-82
2022/12/28 06:46:03;;;;;;;20.55;4.10;;;;;;;8.52;51.95;102151.59;4977700;28;20043;-82
2022/12/28 06:48:30;;;;;;;6.30;3.08;;;;;;;8.53;51.58;102156.88;4985630;28;20042;-82
2022/12/28 06:51:03;;;;;;;13.20;3.00;;;;;;;8.52;52.34;102159.66;4997280;28;20054;-82
2022/12/28 06:53:32;;;;;;;11.95;3.63;;;;;;;8.57;52.65;102158.47;4995921;28;20035;-82
2022/12/28 06:56:03;;;;;;;14.98;3.92;;;;;;;8.65;52.36;102168.84;4990240;28;20027;-82
2022/12/28 06:58:29;;;;;;;12.70;3.63;;;;;;;8.65;51.67;102161.66;4985898;28;20031;-81
2022/12/28 07:00:56;;;;;;;16.10;4.05;;;;;;;8.76;51.63;102179.91;4981561;28;20038;-82
2022/12/28 07:03:23;;;;;;;17.58;4.43;;;;;;;8.84;51.52;102166.13;4972688;28;20038;-82
2022/12/28 07:05:48;;;;;;;8.30;3.13;;;;;;;8.93;51.47;102165.69;4973102;28;20023;-82
2022/12/28 07:08:15;;;;;;;17.95;3.63;;;;;;;8.94;51.21;102170.94;4977202;28;20062;-82
2022/12/28 07:10:41;;;;;;;15.50;3.45;;;;;;;8.95;51.29;102163.78;4957722;28;20023;-82
2022/12/28 07:13:07;;;;;;;23.02;4.15;;;;;;;9.06;51.27;102167.66;4973489;28;20031;-81
2022/12/28 07:15:34;;;;;;;7.05;3.17;;;;;;;9.23;50.93;102174.84;4955919;28;20038;-82
2022/12/28 07:18:00;;;;;;;11.25;3.70;;;;;;;9.24;50.92;102169.41;4972966;28;20092;-81
2022/12/28 07:20:25;;;;;;;9.63;3.03;;;;;;;9.35;50.75;102178.72;4971316;28;20591;-83
2022/12/28 07:22:52;;;;;;;16.08;3.38;;;;;;;9.27;49.84;102176.41;4972872;28;20505;-82
2022/12/28 07:25:18;;;;;;;9.52;3.90;;;;;;;9.27;49.78;102171.03;4973247;28;20133;-82
2022/12/28 07:27:43;;;;;;;12.57;3.20;;;;;;;9.28;50.07;102178.16;4973744;28;20037;-80
2022/12/28 07:30:09;;;;;;;22.08;4.22;;;;;;;9.22;50.51;102178.47;4972522;28;20035;-81
2022/12/28 07:32:38;;;;;;;11.52;3.58;;;;;;;9.28;50.31;102180.84;4975326;28;20085;-82
2022/12/28 07:35:05;;;;;;;10.63;4.47;;;;;;;9.37;49.56;102185.75;4976370;28;20174;-82
2022/12/28 07:37:30;;;;;;;18.33;5.70;;;;;;;9.53;49.39;102189.38;4973470;28;20035;-82
2022/12/28 07:39:56;;;;;;;22.52;3.97;;;;;;;9.66;48.78;102176.19;4972573;28;20085;-82
2022/12/28 07:42:21;;;;;;;26.35;3.72;;;;;;;9.76;48.03;102180.09;4972331;28;20031;-82
2022/12/28 07:44:47;;;;;;;27.33;5.57;;;;;;;9.79;47.60;102175.44;4972075;28;20023;-83
2022/12/28 07:47:14;;;;;;;7.03;3.13;;;;;;;9.78;46.85;102183.59;4972358;28;20055;-82
2022/12/28 07:49:39;;;;;;;17.08;4.38;;;;;;;9.70;46.77;102185.78;4972132;28;20033;-82
2022/12/28 07:52:05;;;;;;;9.10;3.40;;;;;;;9.73;46.50;102183.81;4977906;28;20114;-83
2022/12/28 07:54:31;;;;;;;14.65;4.25;;;;;;;9.75;47.04;102183.75;4973742;28;20106;-82
2022/12/28 07:56:57;;;;;;;7.38;3.60;;;;;;;9.91;46.23;102189.19;4972882;28;20030;-81
2022/12/28 07:59:22;;;;;;;29.05;5.40;;;;;;;9.94;45.71;102183.63;4976113;28;20039;-82
2022/12/28 08:01:51;;;;;;;15.80;4.80;;;;;;;10.06;44.72;102199.94;4976716;28;20510;-81
2022/12/28 08:04:17;;;;;;;14.25;4.82;;;;;;;9.92;44.60;102185.53;4974762;28;20113;-82
2022/12/28 08:06:48;;;;;;;13.35;4.53;;;;;;;10.00;44.23;102204.81;4972202;28;20184;-83
2022/12/28 08:09:14;;;;;;;19.98;4.32;;;;;;;9.97;43.85;102194.22;4973875;28;20121;-82
2022/12/28 08:11:41;;;;;;;15.63;4.88;;;;;;;10.02;43.68;102208.28;4972035;28;20106;-82
2022/12/28 08:14:08;;;;;;;28.15;10.20;;;;;;;10.20;43.90;102218.06;4974385;28;20054;-83
2022/12/28 08:16:37;;;;;;;23.38;5.72;;;;;;;10.36;43.41;102208.22;4972908;28;20046;-82
2022/12/28 08:19:03;;;;;;;19.67;5.13;;;;;;;10.44;43.24;102200.56;4974139;28;20027;-83
2022/12/28 08:21:42;;;;;;;15.23;6.30;;;;;;;10.57;43.59;102212.38;4972543;28;20031;-83
2022/12/28 08:24:11;;;;;;;16.48;5.35;;;;;;;10.52;43.38;102203.69;4973548;28;20115;-81
2022/12/28 08:26:39;;;;;;;15.50;5.47;;;;;;;10.77;43.05;102213.94;4971898;28;20037;-82
2022/12/28 08:29:08;;;;;;;27.50;6.53;;;;;;;10.91;42.71;102206.84;4972235;28;20585;-81
2022/12/28 08:31:36;;;;;;;11.38;4.18;;;;;;;10.92;42.52;102205.84;4973719;28;20038;-83
2022/12/28 08:34:04;;;;;;;18.20;4.07;;;;;;;11.08;42.48;102213.03;4973323;28;20030;-81
2022/12/28 08:36:30;;;;;;;17.30;4.43;;;;;;;11.14;42.33;102208.16;4972416;28;20033;-85
2022/12/28 08:38:59;;;;;;;9.32;3.17;;;;;;;11.25;41.48;102210.25;4975415;28;20030;-81
2022/12/28 08:41:28;;;;;;;18.70;4.13;;;;;;;11.25;41.65;102202.16;4975202;28;20098;-82
2022/12/28 08:43:55;;;;;;;6.32;2.95;;;;;;;11.39;41.09;102184.22;4975713;28;20081;-80
2022/12/28 08:46:28;;;;;;;14.60;4.35;;;;;;;11.55;40.86;102200.34;4974163;28;20059;-83
2022/12/28 08:48:56;;;;;;;12.63;3.60;;;;;;;11.61;40.00;102207.16;4960647;28;20030;-83
2022/12/28 08:51:34;;;;;;;16.77;3.08;;;;;;;11.58;39.61;102192.06;4972446;28;20114;-81
2022/12/28 08:54:01;;;;;;;10.63;3.78;;;;;;;11.63;40.64;102198.03;4972104;28;20027;-82
2022/12/28 08:56:29;;;;;;;26.33;4.18;;;;;;;11.59;40.06;102196.47;4973401;28;20023;-83
2022/12/28 08:58:55;;;;;;;16.55;3.17;;;;;;;11.67;40.28;102188.81;4972210;28;20034;-82
2022/12/28 09:01:24;;;;;;;16.38;3.08;;;;;;;11.57;39.65;102179.53;4974232;28;20027;-81
2022/12/28 09:03:52;;;;;;;5.65;3.08;;;;;;;11.43;39.54;102183.09;4976306;28;20086;-82
2022/12/28 09:06:21;;;;;;;12.82;3.40;;;;;;;11.42;40.34;102170.56;4976040;28;20086;-80
2022/12/28 09:08:58;;;;;;;12.50;3.40;;;;;;;11.56;39.14;102175.09;4971824;28;20034;-83
2022/12/28 09:11:23;;;;;;;7.97;2.35;;;;;;;11.60;38.33;102173.09;4971912;28;20038;-83
2022/12/28 09:13:49;;;;;;;18.42;3.03;;;;;;;11.51;37.53;102176.34;4953747;28;20046;-80
2022/12/28 09:16:17;;;;;;;8.85;2.45;;;;;;;11.52;36.72;102168.19;4971495;28;20026;-82
2022/12/28 09:18:44;;;;;;;20.95;3.88;;;;;;;11.69;37.05;102178.78;4971165;28;20031;-82
2022/12/28 09:21:16;;;;;;;8.85;2.85;;;;;;;11.76;34.95;102180.19;4970987;28;20054;-83
2022/12/28 09:23:43;;;;;;;27.80;5.20;;;;;;;11.70;34.86;102175.19;4972080;28;20023;-82
2022/12/28 09:26:17;;;;;;;6.10;2.28;;;;;;;11.56;34.70;102168.88;4955827;28;20089;-81
2022/12/28 09:28:45;;;;;;;23.05;4.28;;;;;;;11.54;34.77;102177.03;4971086;28;20034;-81
2022/12/28 09:31:10;;;;;;;14.77;2.75;;;;;;;11.50;34.67;102172.78;4975335;28;20034;-84
2022/12/28 09:36:20;;;;;;;14.63;3.28;;;;;;;11.44;34.58;102174.03;4974666;28;20046;-82
2022/12/28 09:38:47;;;;;;;15.70;3.45;;;;;;;11.41;33.90;102174.22;4974813;28;20026;-83
2022/12/28 09:41:42;;;;;;;4.82;2.30;;;;;;;11.50;33.48;102183.56;4975260;28;20059;-82
2022/12/28 09:44:14;;;;;;;18.33;3.90;;;;;;;11.47;34.26;102173.84;4974653;28;20023;-83
2022/12/28 09:46:59;;;;;;;;;;;;;;;11.55;34.15;102176.09;4963206;28;20066;-82
2022/12/28 09:49:43;;;;;;;3.95;2.00;;;;;;;11.39;35.26;102172.56;4898572;29;19926;-82
2022/12/28 09:52:14;;;;;;;9.38;3.30;;;;;;;11.43;34.79;102168.75;4896259;29;20045;-82
2022/12/28 09:54:40;;;;;;;15.27;3.00;;;;;;;11.56;35.40;102163.47;4897639;29;20045;-82
2022/12/28 09:57:14;;;;;;;18.50;3.40;;;;;;;11.54;34.52;102173.47;4899018;29;20036;-81
2022/12/28 09:59:40;;;;;;;12.23;2.65;;;;;;;11.41;35.15;102163.44;4897083;29;20032;-82
2022/12/28 10:02:18;;;;;;;15.10;3.58;;;;;;;11.58;34.90;102170.50;4897029;29;20032;-82
2022/12/28 10:04:47;;;;;;;11.63;3.47;;;;;;;11.58;34.43;102169.63;4896780;29;20047;-83
2022/12/28 10:07:13;;;;;;;5.80;2.75;;;;;;;11.54;34.83;102158.16;4899507;29;20127;-82
2022/12/28 10:09:38;;;;;;;30.25;4.22;;;;;;;11.51;34.34;102158.34;4901072;29;20075;-81
2022/12/28 10:12:30;;;;;;;9.30;2.85;;;;;;;11.44;34.70;102163.25;4900591;29;20068;-81
2022/12/28 10:14:58;;;;;;;33.15;3.50;;;;;;;11.60;35.12;102147.00;4859574;29;20048;-83
2022/12/28 10:17:29;;;;;;;38.63;3.17;;;;;;;11.73;34.09;102158.81;4858372;29;20107;-82
2022/12/28 10:19:57;;;;;;;24.48;3.15;;;;;;;11.94;34.20;102145.81;4857415;29;20050;-82
2022/12/28 10:22:25;;;;;;;9.63;3.47;;;;;;;11.84;34.75;102136.56;4857661;29;20116;-82
2022/12/28 10:24:52;;;;;;;47.30;6.03;;;;;;;11.67;34.68;102145.69;4857090;29;20441;-83
2022/12/28 10:27:23;;;;;;;9.65;3.45;;;;;;;11.59;35.03;102147.13;4873364;29;20037;-83
2022/12/28 10:29:52;;;;;;;12.25;3.28;;;;;;;11.61;35.28;102145.19;4876674;29;20048;-83
2022/12/28 10:32:18;;;;;;;6.22;2.63;;;;;;;11.26;34.25;102155.41;4876139;29;20048;-82
2022/12/28 10:34:59;;;;;;;9.30;2.28;;;;;;;11.06;35.06;102155.72;4876761;29;20057;-82
2022/12/28 10:37:28;;;;;;;10.82;4.97;;;;;;;11.03;35.27;102150.53;4878939;29;20036;-81
2022/12/28 10:40:24;;;;;;;15.45;4.05;;;;;;;11.02;35.94;102155.03;4880242;29;20048;-82
2022/12/28 10:42:53;;;;;;;21.10;3.10;;;;;;;11.02;36.13;102157.72;4880694;29;20041;-81
2022/12/28 10:45:22;;;;;;;12.95;3.45;;;;;;;10.78;36.00;102135.81;4882307;29;20082;-83
2022/12/28 10:47:54;;;;;;;18.10;3.67;;;;;;;11.04;36.05;102157.66;4888620;29;20548;-82
2022/12/28 10:50:40;;;;;;;12.63;2.75;;;;;;;10.99;35.48;102157.03;4896608;29;20033;-84
2022/12/28 10:53:25;;;;;;;13.02;3.75;;;;;;;10.82;35.65;102142.72;4932526;29;20040;-83
2022/12/28 10:56:19;;;;;;;19.38;4.05;;;;;;;10.86;36.25;102133.53;4924782;29;20032;-82
2022/12/28 10:58:48;;;;;;;37.20;3.95;;;;;;;10.89;36.73;102138.72;4919707;29;20040;-82
2022/12/28 11:01:13;;;;;;;22.25;4.00;;;;;;;11.14;36.74;102142.66;4898054;29;20047;-83
2022/12/28 11:03:43;;;;;;;9.65;3.15;;;;;;;11.25;36.14;102140.22;4913532;29;20070;-82
2022/12/28 11:06:15;;;;;;;9.02;3.65;;;;;;;11.10;35.78;102133.91;4913784;29;20036;-82
2022/12/28 11:08:42;;;;;;;24.98;3.28;;;;;;;11.18;36.75;102133.47;4913130;29;20036;-83
2022/12/28 11:11:34;;;;;;;14.32;4.72;;;;;;;11.17;36.03;102131.72;4899443;29;20432;-82
2022/12/28 11:14:12;;;;;;;7.97;2.17;;;;;;;10.96;36.09;102127.59;4879274;29;20148;-83
2022/12/28 11:16:39;;;;;;;7.28;2.80;;;;;;;10.98;37.04;102139.19;4878961;29;20093;-82
2022/12/28 11:19:04;;;;;;;15.32;2.92;;;;;;;10.86;38.02;102135.34;4876443;29;20048;-83
2022/12/28 11:21:32;;;;;;;6.57;2.50;;;;;;;10.63;38.72;102120.56;4876012;29;20386;-82
2022/12/28 11:23:58;;;;;;;8.57;2.60;;;;;;;10.56;39.62;102124.56;4876146;29;20472;-83
2022/12/28 11:26:25;;;;;;;17.73;3.05;;;;;;;10.61;40.03;102118.91;4862084;29;20072;-82
2022/12/28 11:28:52;;;;;;;23.60;2.88;;;;;;;10.82;40.24;102126.59;4875356;29;20043;-83
2022/12/28 11:31:26;;;;;;;12.50;2.80;;;;;;;11.01;40.12;102130.91;4875166;29;20141;-82
2022/12/28 11:33:57;;;;;;;9.18;2.90;;;;;;;10.80;39.24;102128.50;4874796;29;20120;-82
2022/12/28 11:36:25;;;;;;;13.15;3.05;;;;;;;10.91;40.21;102130.59;4876494;29;20039;-82
2022/12/28 11:38:53;;;;;;;8.52;2.40;;;;;;;10.67;39.28;102122.09;4875651;29;20754;-81
2022/12/28 11:41:25;;;;;;;13.95;2.70;;;;;;;10.75;38.50;102117.16;4875684;29;20033;-83
2022/12/28 11:43:50;;;;;;;5.93;2.13;;;;;;;10.63;38.88;102112.50;4875346;29;20048;-84
2022/12/28 11:46:21;;;;;;;15.13;3.15;;;;;;;10.65;37.40;102109.69;4884033;29;20067;-81
2022/12/28 11:49:26;;;;;;;8.73;2.33;;;;;;;10.79;36.39;102115.16;4895440;29;20536;-82
2022/12/28 11:52:33;;;;;;;8.70;2.53;;;;;;;10.84;38.39;102108.53;4913130;29;20048;-82
2022/12/28 11:55:20;;;;;;;25.25;2.38;;;;;;;10.83;36.86;102104.09;4876752;29;20093;-82
2022/12/28 11:57:45;;;;;;;6.57;2.17;;;;;;;10.80;36.51;102101.59;4875737;29;20086;-83
2022/12/28 12:00:19;;;;;;;4.25;1.67;;;;;;;10.79;36.36;102110.63;4875888;29;20488;-83
2022/12/28 12:02:50;;;;;;;3.72;1.98;;;;;;;10.86;35.30;102109.31;4877649;29;20169;-81
2022/12/28 12:05:35;;;;;;;14.43;5.40;;;;;;;10.72;34.92;102106.56;4875668;29;20121;-80